createdAt,value
2023-04-08T00:01:55.898Z,6.60
2023-04-08T00:04:23.648Z,6.30
2023-04-08T00:06:51.470Z,6.50
2023-04-08T00:09:18.987Z,6.50
2023-04-08T00:11:46.693Z,6.20
2023-04-08T00:14:13.721Z,6.20
2023-04-08T00:16:41.634Z,6.40
2023-04-08T00:19:12.666Z,6.30
2023-04-08T00:21:39.882Z,6.00
2023-04-08T00:24:07.339Z,6.00
2023-04-08T00:26:34.635Z,5.90
2023-04-08T00:29:02.156Z,5.80
2023-04-08T00:31:29.642Z,5.80
2023-04-08T00:33:57.923Z,5.70
2023-04-08T00:36:27.791Z,5.60
2023-04-08T00:38:55.370Z,5.40
2023-04-08T00:41:25.388Z,5.30
2023-04-08T00:44:00.710Z,5.30
2023-04-08T00:46:29.143Z,5.40
2023-04-08T00:48:56.470Z,5.30
2023-04-08T00:51:23.903Z,5.60
2023-04-08T00:53:51.395Z,5.20
2023-04-08T00:56:18.763Z,5.40
2023-04-08T00:58:49.355Z,5.30
2023-04-08T01:01:47.960Z,5.10
2023-04-08T01:04:41.181Z,5.10
2023-04-08T01:07:17.019Z,5.20
2023-04-08T01:09:55.657Z,5.00
2023-04-08T01:12:29.461Z,5.10
2023-04-08T01:15:03.990Z,4.70
2023-04-08T01:17:32.812Z,5.00
2023-04-08T01:20:04.850Z,4.90
2023-04-08T01:22:44.209Z,5.00
2023-04-08T01:25:30.651Z,5.10
2023-04-08T01:27:59.359Z,5.10
2023-04-08T01:30:29.458Z,4.80
2023-04-08T01:32:58.324Z,4.80
2023-04-08T01:35:26.349Z,5.20
2023-04-08T01:37:55.876Z,5.10
2023-04-08T01:40:23.789Z,5.00
2023-04-08T01:42:55.269Z,5.20
2023-04-08T01:45:24.212Z,5.10
2023-04-08T01:47:53.580Z,5.00
2023-04-08T01:50:22.735Z,5.20
2023-04-08T01:52:53.916Z,5.10
2023-04-08T01:55:22.197Z,4.50
2023-04-08T01:57:53.043Z,4.60
2023-04-08T02:00:26.150Z,4.90
2023-04-08T02:02:57.356Z,5.00
2023-04-08T02:05:24.917Z,4.50
2023-04-08T02:07:52.879Z,4.70
2023-04-08T02:10:20.124Z,4.70
2023-04-08T02:12:48.400Z,4.70
2023-04-08T02:15:16.942Z,4.80
2023-04-08T02:17:50.962Z,4.70
2023-04-08T02:20:41.845Z,4.70
2023-04-08T02:23:19.868Z,4.70
2023-04-08T02:25:48.763Z,4.60
2023-04-08T02:28:19.504Z,4.70
2023-04-08T02:30:51.061Z,4.50
2023-04-08T02:33:21.711Z,4.30
2023-04-08T02:35:51.936Z,4.50
2023-04-08T02:38:19.410Z,4.60
2023-04-08T02:40:55.994Z,4.50
2023-04-08T02:43:32.497Z,4.70
2023-04-08T02:46:04.067Z,4.70
2023-04-08T02:48:34.123Z,4.60
2023-04-08T02:51:01.542Z,4.60
2023-04-08T02:53:31.821Z,4.40
2023-04-08T02:55:59.335Z,4.50
2023-04-08T02:58:26.640Z,4.40
2023-04-08T03:00:53.939Z,4.60
2023-04-08T03:03:27.858Z,4.40
2023-04-08T03:05:56.613Z,4.50
2023-04-08T03:08:24.447Z,4.00
2023-04-08T03:10:53.779Z,4.00
2023-04-08T03:13:21.035Z,4.50
2023-04-08T03:15:48.156Z,4.50
2023-04-08T03:18:16.060Z,4.30
2023-04-08T03:20:43.151Z,4.30
2023-04-08T03:23:11.275Z,3.90
2023-04-08T03:25:38.255Z,4.20
2023-04-08T03:28:06.787Z,4.10
2023-04-08T03:30:34.278Z,4.00
2023-04-08T03:33:06.204Z,4.20
2023-04-08T03:35:34.540Z,4.20
2023-04-08T03:38:02.714Z,4.50
2023-04-08T03:40:30.086Z,4.50
2023-04-08T03:42:57.511Z,4.50
2023-04-08T03:45:24.950Z,4.60
2023-04-08T03:47:52.048Z,4.60
2023-04-08T03:50:19.292Z,4.80
2023-04-08T03:52:46.581Z,4.80
2023-04-08T03:55:13.761Z,4.70
2023-04-08T03:57:41.377Z,4.80
2023-04-08T04:00:09.672Z,4.70
2023-04-08T04:02:39.780Z,4.60
2023-04-08T04:05:07.480Z,4.80
2023-04-08T04:07:34.799Z,4.50
2023-04-08T04:10:11.376Z,4.80
2023-04-08T04:12:38.754Z,4.80
2023-04-08T04:15:06.486Z,4.70
2023-04-08T04:17:33.860Z,4.50
2023-04-08T04:20:03.910Z,4.70
2023-04-08T04:25:12.290Z,4.70
2023-04-08T04:27:42.007Z,5.00
2023-04-08T04:30:10.954Z,4.80
2023-04-08T04:32:38.631Z,4.80
2023-04-08T04:35:06.660Z,5.10
2023-04-08T04:37:33.904Z,4.90
2023-04-08T04:40:01.594Z,5.20
2023-04-08T04:42:28.955Z,5.20
2023-04-08T04:44:58.999Z,5.40
2023-04-08T04:47:27.152Z,5.30
2023-04-08T04:49:54.498Z,5.30
2023-04-08T04:52:21.631Z,5.30
2023-04-08T04:54:48.773Z,5.40
2023-04-08T04:57:16.228Z,5.30
2023-04-08T04:59:43.509Z,5.30
2023-04-08T05:02:10.814Z,5.30
2023-04-08T05:04:38.434Z,5.30
2023-04-08T05:07:06.154Z,5.30
2023-04-08T05:09:33.557Z,5.40
2023-04-08T05:12:01.418Z,5.30
2023-04-08T05:14:31.641Z,5.30
2023-04-08T05:16:59.104Z,5.40
2023-04-08T05:19:26.477Z,5.40
2023-04-08T05:21:53.988Z,5.30
2023-04-08T05:24:21.188Z,5.40
2023-04-08T05:26:52.676Z,5.30
2023-04-08T05:29:22.001Z,5.40
2023-04-08T05:31:51.863Z,5.10
2023-04-08T05:34:23.254Z,5.30
2023-04-08T05:36:53.630Z,5.30
2023-04-08T05:39:33.998Z,5.30
2023-04-08T05:42:01.492Z,5.30
2023-04-08T05:44:28.728Z,5.40
2023-04-08T05:46:58.021Z,5.60
2023-04-08T05:49:25.314Z,5.50
2023-04-08T05:51:52.406Z,5.50
2023-04-08T05:54:20.012Z,5.60
2023-04-08T05:56:49.102Z,5.60
2023-04-08T05:59:16.751Z,5.50
2023-04-08T06:01:53.960Z,5.60
2023-04-08T06:04:21.506Z,5.90
2023-04-08T06:06:48.932Z,5.80
2023-04-08T06:09:16.262Z,5.60
2023-04-08T06:11:43.427Z,5.90
2023-04-08T06:14:10.984Z,5.90
2023-04-08T06:16:38.253Z,5.90
2023-04-08T06:19:05.350Z,6.00
2023-04-08T06:21:32.657Z,5.90
2023-04-08T06:24:00.293Z,6.00
2023-04-08T06:26:28.474Z,6.00
2023-04-08T06:28:56.456Z,5.80
2023-04-08T06:31:23.621Z,6.00
2023-04-08T06:33:52.799Z,5.90
2023-04-08T06:36:20.142Z,5.90
2023-04-08T06:38:47.402Z,5.90
2023-04-08T06:41:14.444Z,5.80
2023-04-08T06:43:42.203Z,6.00
2023-04-08T06:46:09.610Z,5.80
2023-04-08T06:48:38.000Z,5.90
2023-04-08T06:51:05.308Z,5.90
2023-04-08T06:53:33.830Z,5.90
2023-04-08T06:56:01.584Z,5.90
2023-04-08T06:58:34.962Z,6.10
2023-04-08T07:01:03.755Z,6.00
2023-04-08T07:03:32.555Z,6.10
2023-04-08T07:06:00.251Z,6.10
2023-04-08T07:08:27.517Z,6.30
2023-04-08T07:10:55.040Z,6.30
2023-04-08T07:13:23.974Z,6.30
2023-04-08T07:15:52.315Z,6.60
2023-04-08T07:18:19.694Z,6.60
2023-04-08T07:20:51.608Z,6.80
2023-04-08T07:23:19.043Z,7.00
2023-04-08T07:25:48.614Z,6.90
2023-04-08T07:28:16.451Z,7.10
2023-04-08T07:30:44.222Z,6.90
2023-04-08T07:33:11.752Z,7.20
2023-04-08T07:35:39.706Z,6.90
2023-04-08T07:38:11.814Z,7.20
2023-04-08T07:40:39.155Z,7.00
2023-04-08T07:43:06.484Z,7.10
2023-04-08T07:45:33.967Z,7.40
2023-04-08T07:48:01.984Z,7.40
2023-04-08T07:50:29.647Z,7.50
2023-04-08T07:52:57.595Z,7.80
2023-04-08T07:55:24.622Z,7.80
2023-04-08T07:57:52.158Z,7.80
2023-04-08T08:00:22.173Z,7.70
2023-04-08T08:02:49.411Z,7.90
2023-04-08T08:05:16.748Z,7.80
2023-04-08T08:07:47.070Z,8.10
2023-04-08T08:10:14.488Z,8.10
2023-04-08T08:12:42.348Z,8.20
2023-04-08T08:15:10.066Z,8.00
2023-04-08T08:17:38.581Z,8.40
2023-04-08T08:20:07.566Z,8.10
2023-04-08T08:22:39.680Z,8.00
2023-04-08T08:25:11.536Z,8.20
2023-04-08T08:27:41.668Z,8.10
2023-04-08T08:30:09.641Z,8.30
2023-04-08T08:32:37.629Z,8.40
2023-04-08T08:35:06.141Z,8.50
2023-04-08T08:37:33.258Z,8.40
2023-04-08T08:40:00.301Z,8.40
2023-04-08T08:42:27.608Z,8.50
2023-04-08T08:44:55.307Z,8.80
2023-04-08T08:47:22.964Z,8.70
2023-04-08T08:49:50.544Z,8.60
2023-04-08T08:52:18.844Z,9.00
2023-04-08T08:54:46.546Z,9.00
2023-04-08T08:57:21.245Z,9.40
2023-04-08T08:59:48.632Z,9.60
2023-04-08T09:02:37.900Z,9.50
2023-04-08T09:05:06.042Z,9.80
2023-04-08T09:07:37.074Z,9.90
2023-04-08T09:10:04.876Z,10.00
2023-04-08T09:12:32.145Z,10.00
2023-04-08T09:15:10.382Z,10.10
2023-04-08T09:17:40.844Z,10.10
2023-04-08T09:20:12.956Z,10.00
2023-04-08T09:22:57.212Z,10.20
2023-04-08T09:25:29.378Z,10.40
2023-04-08T09:27:57.144Z,10.30
2023-04-08T09:30:27.648Z,10.20
2023-04-08T09:32:58.214Z,10.20
2023-04-08T09:35:26.466Z,10.50
2023-04-08T09:37:54.379Z,10.60
2023-04-08T09:40:25.203Z,10.70
2023-04-08T09:42:53.853Z,11.00
2023-04-08T09:45:22.238Z,10.70
2023-04-08T09:47:49.711Z,11.00
2023-04-08T09:50:21.176Z,11.30
2023-04-08T09:52:55.412Z,11.50
2023-04-08T09:55:24.616Z,11.30
2023-04-08T09:57:55.931Z,11.40
2023-04-08T10:00:29.627Z,11.60
2023-04-08T10:03:03.467Z,11.60
2023-04-08T10:05:32.124Z,11.70
2023-04-08T10:08:02.520Z,11.70
2023-04-08T10:10:34.685Z,11.90
2023-04-08T10:13:03.059Z,11.90
2023-04-08T10:15:32.558Z,12.10
2023-04-08T10:18:06.593Z,12.40
2023-04-08T10:20:37.240Z,12.40
2023-04-08T10:23:08.026Z,12.30
2023-04-08T10:25:37.065Z,12.40
2023-04-08T10:28:19.269Z,12.30
2023-04-08T10:30:47.466Z,12.90
2023-04-08T10:33:18.994Z,12.80
2023-04-08T10:35:54.878Z,13.50
2023-04-08T10:38:22.530Z,13.10
2023-04-08T10:40:51.575Z,13.20
2023-04-08T10:43:19.290Z,13.30
2023-04-08T10:45:48.556Z,13.30
2023-04-08T10:48:25.144Z,13.70
2023-04-08T10:50:58.333Z,13.70
2023-04-08T10:53:30.766Z,14.50
2023-04-08T10:56:07.506Z,14.60
2023-04-08T10:58:37.291Z,14.60
2023-04-08T11:01:08.574Z,14.40
2023-04-08T11:03:38.214Z,14.50
2023-04-08T11:06:06.574Z,14.70
2023-04-08T11:08:36.877Z,14.80
2023-04-08T11:11:09.190Z,15.30
2023-04-08T11:13:53.528Z,15.70
2023-04-08T11:16:25.060Z,15.60
2023-04-08T11:18:54.077Z,15.40
2023-04-08T11:21:29.747Z,15.70
2023-04-08T11:23:57.347Z,15.70
2023-04-08T11:26:28.407Z,15.60
2023-04-08T11:28:58.558Z,15.40
2023-04-08T11:31:26.043Z,15.50
2023-04-08T11:33:55.805Z,15.90
2023-04-08T11:36:23.278Z,16.00
2023-04-08T11:38:50.576Z,16.50
2023-04-08T11:41:17.782Z,16.40
2023-04-08T11:43:56.634Z,16.80
2023-04-08T11:46:24.387Z,16.70
2023-04-08T11:49:02.825Z,16.80
2023-04-08T11:51:30.675Z,16.70
2023-04-08T11:53:58.158Z,16.20
2023-04-08T11:56:26.034Z,16.30
2023-04-08T11:58:53.486Z,15.80
2023-04-08T12:01:21.740Z,15.80
2023-04-08T12:03:56.699Z,15.40
2023-04-08T12:06:24.874Z,15.50
2023-04-08T12:08:55.336Z,15.30
2023-04-08T12:11:23.373Z,15.20
2023-04-08T12:13:51.574Z,15.40
2023-04-08T12:16:20.199Z,15.50
2023-04-08T12:18:47.972Z,15.70
2023-04-08T12:21:15.165Z,15.40
2023-04-08T12:23:42.427Z,15.70
2023-04-08T12:26:10.011Z,16.00
2023-04-08T12:28:37.374Z,15.60
2023-04-08T12:31:04.971Z,15.50
2023-04-08T12:33:32.506Z,15.40
2023-04-08T12:35:59.856Z,15.40
2023-04-08T12:38:27.285Z,14.90
2023-04-08T12:40:55.679Z,14.70
2023-04-08T12:43:24.187Z,14.40
2023-04-08T12:45:52.078Z,14.40
2023-04-08T12:48:21.365Z,14.20
2023-04-08T12:50:48.513Z,14.20
2023-04-08T12:53:15.902Z,14.00
2023-04-08T12:55:44.503Z,14.10
2023-04-08T12:58:12.079Z,13.90
2023-04-08T13:00:39.317Z,13.80
2023-04-08T13:03:06.945Z,14.10
2023-04-08T13:05:43.099Z,14.10
2023-04-08T13:08:12.776Z,14.10
2023-04-08T13:10:42.240Z,14.30
2023-04-08T13:13:09.786Z,14.30
2023-04-08T13:15:37.450Z,14.50
2023-04-08T13:18:06.152Z,14.90
2023-04-08T13:20:33.940Z,14.50
2023-04-08T13:23:01.867Z,14.70
2023-04-08T13:25:32.638Z,14.80
2023-04-08T13:28:02.682Z,14.50
2023-04-08T13:30:43.016Z,14.50
2023-04-08T13:33:10.360Z,14.40
2023-04-08T13:35:37.904Z,14.10
2023-04-08T13:38:05.370Z,14.20
2023-04-08T13:40:33.525Z,13.70
2023-04-08T13:43:01.731Z,14.00
2023-04-08T13:45:29.267Z,13.40
2023-04-08T13:48:00.011Z,13.50
2023-04-08T13:50:27.234Z,13.30
2023-04-08T13:52:54.285Z,12.90
2023-04-08T13:55:22.462Z,12.80
2023-04-08T13:57:49.810Z,12.90
2023-04-08T14:00:17.719Z,12.70
2023-04-08T14:02:45.240Z,12.80
2023-04-08T14:05:12.998Z,12.70
2023-04-08T14:07:40.466Z,12.30
2023-04-08T14:10:09.152Z,12.30
2023-04-08T14:12:39.064Z,12.20
2023-04-08T14:15:07.127Z,12.50
2023-04-08T14:17:36.358Z,12.70
2023-04-08T14:20:07.320Z,12.50
2023-04-08T14:22:34.437Z,12.40
2023-04-08T14:25:02.399Z,12.70
2023-04-08T14:27:30.154Z,12.60
2023-04-08T14:29:57.611Z,12.40
2023-04-08T14:32:25.100Z,12.30
2023-04-08T14:34:52.112Z,12.40
2023-04-08T14:37:19.386Z,12.30
2023-04-08T14:39:47.029Z,12.10
2023-04-08T14:42:19.596Z,12.00
2023-04-08T14:44:46.573Z,12.20
2023-04-08T14:47:13.855Z,12.20
2023-04-08T14:49:41.207Z,11.90
2023-04-08T14:52:08.311Z,11.90
2023-04-08T14:54:35.751Z,12.00
2023-04-08T14:57:07.615Z,11.80
2023-04-08T14:59:34.564Z,11.90
2023-04-08T15:02:02.090Z,11.90
2023-04-08T15:04:29.698Z,12.10
2023-04-08T15:06:59.720Z,11.90
2023-04-08T15:09:27.298Z,11.60
2023-04-08T15:11:54.630Z,11.80
2023-04-08T15:14:21.965Z,11.70
2023-04-08T15:16:49.319Z,11.60
2023-04-08T15:19:19.136Z,11.30
2023-04-08T15:21:46.742Z,11.50
2023-04-08T15:24:20.564Z,11.50
2023-04-08T15:27:01.263Z,11.60
2023-04-08T15:29:31.530Z,11.50
2023-04-08T15:31:59.390Z,11.60
2023-04-08T15:34:38.944Z,11.60
2023-04-08T15:37:06.893Z,11.70
2023-04-08T15:39:40.452Z,11.80
2023-04-08T15:42:22.565Z,11.90
2023-04-08T15:44:50.317Z,11.90
2023-04-08T15:47:24.455Z,12.00
2023-04-08T15:49:53.358Z,12.30
2023-04-08T15:52:21.315Z,12.60
2023-04-08T15:54:48.685Z,12.60
2023-04-08T15:57:17.858Z,12.80
2023-04-08T15:59:45.195Z,12.60
2023-04-08T16:02:12.843Z,12.60
2023-04-08T16:04:40.190Z,12.60
2023-04-08T16:07:08.934Z,12.80
2023-04-08T16:09:42.007Z,12.80
2023-04-08T16:12:09.744Z,12.80
2023-04-08T16:14:47.417Z,13.20
2023-04-08T16:17:14.962Z,13.10
2023-04-08T16:19:42.563Z,12.80
2023-04-08T16:22:09.641Z,12.80
2023-04-08T16:24:37.399Z,12.70
2023-04-08T16:27:04.835Z,12.80
2023-04-08T16:29:32.971Z,12.70
2023-04-08T16:32:00.356Z,12.30
2023-04-08T16:34:30.684Z,12.50
2023-04-08T16:36:58.066Z,12.30
2023-04-08T16:39:25.914Z,12.60
2023-04-08T16:41:53.932Z,12.40
2023-04-08T16:44:29.234Z,12.50
2023-04-08T16:46:56.991Z,12.40
2023-04-08T16:49:24.920Z,12.20
2023-04-08T16:51:52.010Z,11.90
2023-04-08T16:54:19.562Z,12.00
2023-04-08T16:56:47.539Z,11.70
2023-04-08T16:59:15.400Z,11.70
2023-04-08T17:01:42.806Z,11.70
2023-04-08T17:04:10.276Z,11.50
2023-04-08T17:06:38.427Z,11.50
2023-04-08T17:09:06.039Z,11.50
2023-04-08T17:11:33.980Z,11.30
2023-04-08T17:14:01.895Z,11.30
2023-04-08T17:16:29.937Z,11.30
2023-04-08T17:18:57.818Z,11.40
2023-04-08T17:21:25.193Z,11.30
2023-04-08T17:23:53.055Z,11.20
2023-04-08T17:26:22.410Z,11.00
2023-04-08T17:28:50.336Z,11.20
2023-04-08T17:31:18.188Z,11.30
2023-04-08T17:33:45.548Z,10.70
2023-04-08T17:36:13.778Z,11.10
2023-04-08T17:38:41.496Z,11.00
2023-04-08T17:41:10.184Z,10.90
2023-04-08T17:43:39.008Z,10.80
2023-04-08T17:46:06.171Z,10.60
2023-04-08T17:48:33.592Z,10.50
2023-04-08T17:51:06.431Z,10.40
2023-04-08T17:53:34.501Z,10.80
2023-04-08T17:56:02.301Z,10.30
2023-04-08T17:58:29.543Z,10.40
2023-04-08T18:00:57.178Z,10.30
2023-04-08T18:03:27.595Z,10.40
2023-04-08T18:05:58.534Z,10.10
2023-04-08T18:08:38.696Z,10.00
2023-04-08T18:11:09.288Z,9.80
2023-04-08T18:13:36.784Z,10.00
2023-04-08T18:16:07.726Z,10.10
2023-04-08T18:18:39.257Z,10.00
2023-04-08T18:23:50.018Z,10.00
2023-04-08T18:26:18.056Z,9.90
2023-04-08T18:28:45.666Z,9.80
2023-04-08T18:31:13.296Z,9.90
2023-04-08T18:33:40.821Z,9.80
2023-04-08T18:36:13.145Z,9.80
2023-04-08T18:38:41.394Z,9.60
2023-04-08T18:41:09.054Z,9.50
2023-04-08T18:43:37.932Z,9.90
2023-04-08T18:46:05.388Z,9.90
2023-04-08T18:48:35.267Z,9.80
2023-04-08T18:51:02.852Z,9.90
2023-04-08T18:53:30.885Z,9.80
2023-04-08T18:56:00.878Z,10.00
2023-04-08T18:58:28.061Z,9.60
2023-04-08T19:01:10.987Z,9.70
2023-04-08T19:03:38.441Z,9.70
2023-04-08T19:06:07.579Z,9.60
2023-04-08T19:08:34.938Z,9.60
2023-04-08T19:11:03.253Z,9.70
2023-04-08T19:13:31.383Z,9.50
2023-04-08T19:15:58.427Z,9.30
2023-04-08T19:18:25.756Z,9.50
2023-04-08T19:20:53.288Z,9.50
2023-04-08T19:23:20.557Z,9.50
2023-04-08T19:25:47.708Z,9.20
2023-04-08T19:28:18.344Z,9.50
2023-04-08T19:30:47.387Z,9.30
2023-04-08T19:33:15.894Z,9.60
2023-04-08T19:35:44.117Z,9.40
2023-04-08T19:38:12.290Z,9.30
2023-04-08T19:40:40.648Z,9.40
2023-04-08T19:43:08.096Z,9.30
2023-04-08T19:45:35.148Z,9.50
2023-04-08T19:48:02.209Z,9.30
2023-04-08T19:50:31.342Z,9.40
2023-04-08T19:52:58.775Z,9.40
2023-04-08T19:55:30.522Z,9.00
2023-04-08T19:58:00.609Z,9.10
2023-04-08T20:00:28.832Z,9.20
2023-04-08T20:02:56.129Z,9.50
2023-04-08T20:05:26.493Z,9.10
2023-04-08T20:07:53.600Z,9.00
2023-04-08T20:10:21.012Z,8.90
2023-04-08T20:12:48.184Z,9.10
2023-04-08T20:15:24.825Z,9.00
2023-04-08T20:17:53.810Z,9.00
2023-04-08T20:20:24.471Z,9.00
2023-04-08T20:23:02.285Z,9.20
2023-04-08T20:25:33.075Z,9.00
2023-04-08T20:28:00.364Z,8.90
2023-04-08T20:30:30.034Z,9.10
2023-04-08T20:32:57.552Z,8.90
2023-04-08T20:35:30.863Z,9.00
2023-04-08T20:37:58.069Z,8.90
2023-04-08T20:40:25.715Z,8.80
2023-04-08T20:42:53.602Z,8.80
2023-04-08T20:45:21.139Z,8.80
2023-04-08T20:47:48.671Z,8.90
2023-04-08T20:50:16.285Z,9.00
2023-04-08T20:52:43.674Z,8.90
2023-04-08T20:55:11.176Z,9.10
2023-04-08T20:57:38.424Z,9.00
2023-04-08T21:00:06.910Z,9.00
2023-04-08T21:02:35.007Z,8.80
2023-04-08T21:05:04.017Z,8.70
2023-04-08T21:07:31.623Z,9.00
2023-04-08T21:09:59.053Z,8.80
2023-04-08T21:12:29.074Z,8.80
2023-04-08T21:14:56.284Z,8.90
2023-04-08T21:17:23.773Z,8.80
2023-04-08T21:19:52.225Z,8.70
2023-04-08T21:22:19.724Z,8.80
2023-04-08T21:24:48.295Z,8.50
2023-04-08T21:27:15.750Z,8.50
2023-04-08T21:29:43.049Z,8.60
2023-04-08T21:32:10.588Z,8.40
2023-04-08T21:34:38.176Z,8.50
2023-04-08T21:37:06.078Z,8.40
2023-04-08T21:39:33.222Z,8.70
2023-04-08T21:42:07.477Z,8.50
2023-04-08T21:44:35.059Z,8.60
2023-04-08T21:47:02.762Z,8.40
2023-04-08T21:49:30.037Z,8.50
2023-04-08T21:51:57.936Z,8.40
2023-04-08T21:54:25.696Z,8.50
2023-04-08T21:56:57.157Z,8.40
2023-04-08T21:59:24.772Z,8.50
2023-04-08T22:01:52.481Z,8.40
2023-04-08T22:04:19.856Z,8.50
2023-04-08T22:06:49.614Z,8.60
2023-04-08T22:09:17.059Z,8.50
2023-04-08T22:11:44.547Z,8.50
2023-04-08T22:14:11.964Z,8.40
2023-04-08T22:16:40.118Z,8.40
2023-04-08T22:19:07.733Z,8.30
2023-04-08T22:21:35.109Z,8.60
2023-04-08T22:24:03.234Z,8.40
2023-04-08T22:26:30.729Z,8.50
2023-04-08T22:28:58.001Z,8.40
2023-04-08T22:31:25.235Z,8.50
2023-04-08T22:33:53.131Z,8.40
2023-04-08T22:36:20.701Z,8.50
2023-04-08T22:38:50.207Z,8.40
2023-04-08T22:41:22.393Z,8.70
2023-04-08T22:43:50.967Z,8.50
2023-04-08T22:46:21.146Z,8.40
2023-04-08T22:48:49.878Z,8.70
2023-04-08T22:51:20.085Z,8.70
2023-04-08T22:53:47.330Z,8.70
2023-04-08T22:56:15.095Z,8.50
2023-04-08T22:58:43.085Z,8.60
2023-04-08T23:01:17.313Z,8.60
2023-04-08T23:03:45.230Z,8.50
2023-04-08T23:06:13.036Z,8.50
2023-04-08T23:08:40.822Z,8.40
2023-04-08T23:11:08.494Z,8.40
2023-04-08T23:13:36.256Z,8.40
2023-04-08T23:16:04.103Z,8.50
2023-04-08T23:18:36.641Z,8.50
2023-04-08T23:21:04.200Z,8.60
2023-04-08T23:23:31.685Z,8.70
2023-04-08T23:25:59.260Z,8.50
2023-04-08T23:28:26.369Z,8.30
2023-04-08T23:30:54.089Z,8.20
2023-04-08T23:33:21.177Z,8.40
2023-04-08T23:35:48.210Z,8.10
2023-04-08T23:38:17.910Z,8.10
2023-04-08T23:40:45.048Z,8.00
2023-04-08T23:43:12.782Z,8.20
2023-04-08T23:45:41.161Z,8.20
2023-04-08T23:48:11.410Z,8.00
2023-04-08T23:50:38.760Z,8.40
2023-04-08T23:53:05.998Z,8.10
2023-04-08T23:55:33.470Z,8.20
2023-04-08T23:58:00.915Z,8.10
